sensor_id;sensor_type;location;lat;lon;timestamp;pressure;altitude;pressure_sealevel;temperature;humidity
68988;BME280;56038;46.080;11.116;2023-08-07T00:01:47;98775.38;;;20.90;50.94
68988;BME280;56038;46.080;11.116;2023-08-07T00:06:49;98780.94;;;20.97;50.48
68988;BME280;56038;46.080;11.116;2023-08-07T00:11:52;98778.91;;;20.71;49.68
68988;BME280;56038;46.080;11.116;2023-08-07T00:16:53;98788.38;;;20.64;49.74
68988;BME280;56038;46.080;11.116;2023-08-07T00:21:56;98785.00;;;20.81;49.08
68988;BME280;56038;46.080;11.116;2023-08-07T00:26:59;98779.16;;;20.87;48.39
68988;BME280;56038;46.080;11.116;2023-08-07T00:32:01;98787.28;;;20.86;48.10
68988;BME280;56038;46.080;11.116;2023-08-07T00:37:03;98790.47;;;20.80;47.85
68988;BME280;56038;46.080;11.116;2023-08-07T00:42:07;98792.28;;;20.79;47.98
68988;BME280;56038;46.080;11.116;2023-08-07T00:47:16;98797.19;;;20.84;47.58
68988;BME280;56038;46.080;11.116;2023-08-07T00:52:23;98802.34;;;20.66;46.35
68988;BME280;56038;46.080;11.116;2023-08-07T00:57:34;98799.56;;;20.68;45.32
68988;BME280;56038;46.080;11.116;2023-08-07T01:02:35;98797.16;;;20.64;46.52
68988;BME280;56038;46.080;11.116;2023-08-07T01:07:38;98797.59;;;20.79;45.92
68988;BME280;56038;46.080;11.116;2023-08-07T01:12:47;98802.78;;;20.90;44.83
68988;BME280;56038;46.080;11.116;2023-08-07T01:17:49;98812.16;;;20.85;45.09
68988;BME280;56038;46.080;11.116;2023-08-07T01:22:55;98811.16;;;20.86;44.73
68988;BME280;56038;46.080;11.116;2023-08-07T01:28:04;98814.66;;;20.77;43.88
68988;BME280;56038;46.080;11.116;2023-08-07T01:33:10;98819.69;;;20.70;44.48
68988;BME280;56038;46.080;11.116;2023-08-07T01:38:20;98815.88;;;20.82;44.17
68988;BME280;56038;46.080;11.116;2023-08-07T01:43:24;98816.63;;;20.84;44.08
68988;BME280;56038;46.080;11.116;2023-08-07T01:48:26;98830.59;;;20.86;43.85
68988;BME280;56038;46.080;11.116;2023-08-07T01:53:29;98834.78;;;20.89;43.62
68988;BME280;56038;46.080;11.116;2023-08-07T01:58:33;98831.19;;;19.90;44.07
68988;BME280;56038;46.080;11.116;2023-08-07T02:03:34;98825.31;;;19.87;44.05
68988;BME280;56038;46.080;11.116;2023-08-07T02:08:37;98819.00;;;19.78;44.63
68988;BME280;56038;46.080;11.116;2023-08-07T02:13:39;98827.09;;;20.17;44.62
68988;BME280;56038;46.080;11.116;2023-08-07T02:18:41;98832.19;;;20.39;44.31
68988;BME280;56038;46.080;11.116;2023-08-07T02:23:44;98835.66;;;19.90;45.04
68988;BME280;56038;46.080;11.116;2023-08-07T02:28:45;98843.59;;;20.20;45.04
68988;BME280;56038;46.080;11.116;2023-08-07T02:33:47;98838.84;;;20.33;44.79
68988;BME280;56038;46.080;11.116;2023-08-07T02:38:50;98838.00;;;20.23;44.36
68988;BME280;56038;46.080;11.116;2023-08-07T02:43:52;98848.34;;;20.26;44.81
68988;BME280;56038;46.080;11.116;2023-08-07T02:48:53;98851.28;;;20.33;44.41
68988;BME280;56038;46.080;11.116;2023-08-07T02:53:56;98848.63;;;20.33;44.23
68988;BME280;56038;46.080;11.116;2023-08-07T02:58:58;98853.69;;;20.36;44.42
68988;BME280;56038;46.080;11.116;2023-08-07T03:04:02;98845.97;;;20.23;44.27
68988;BME280;56038;46.080;11.116;2023-08-07T03:09:05;98848.66;;;19.93;45.02
68988;BME280;56038;46.080;11.116;2023-08-07T03:14:06;98844.94;;;19.12;45.37
68988;BME280;56038;46.080;11.116;2023-08-07T03:19:08;98849.91;;;19.05;46.88
68988;BME280;56038;46.080;11.116;2023-08-07T03:24:11;98848.13;;;18.63;47.33
68988;BME280;56038;46.080;11.116;2023-08-07T03:35:09;98854.88;;;18.99;46.99
68988;BME280;56038;46.080;11.116;2023-08-07T03:40:30;98866.34;;;19.09;45.35
68988;BME280;56038;46.080;11.116;2023-08-07T03:45:32;98861.66;;;19.12;46.38
68988;BME280;56038;46.080;11.116;2023-08-07T03:50:34;98875.00;;;19.43;46.22
68988;BME280;56038;46.080;11.116;2023-08-07T03:55:38;98872.06;;;19.46;47.06
68988;BME280;56038;46.080;11.116;2023-08-07T04:00:42;98884.72;;;18.35;47.56
68988;BME280;56038;46.080;11.116;2023-08-07T04:05:43;98896.19;;;17.56;48.51
68988;BME280;56038;46.080;11.116;2023-08-07T04:10:57;98890.19;;;17.19;48.50
68988;BME280;56038;46.080;11.116;2023-08-07T04:16:30;98895.53;;;16.95;49.55
68988;BME280;56038;46.080;11.116;2023-08-07T04:21:32;98905.25;;;16.58;50.78
68988;BME280;56038;46.080;11.116;2023-08-07T04:26:36;98894.66;;;16.34;51.42
68988;BME280;56038;46.080;11.116;2023-08-07T04:31:38;98900.75;;;15.98;52.20
68988;BME280;56038;46.080;11.116;2023-08-07T04:36:39;98899.16;;;15.82;53.04
68988;BME280;56038;46.080;11.116;2023-08-07T04:41:42;98906.63;;;15.76;53.49
68988;BME280;56038;46.080;11.116;2023-08-07T04:46:44;98906.22;;;15.82;53.47
68988;BME280;56038;46.080;11.116;2023-08-07T04:51:46;98912.75;;;16.51;55.41
68988;BME280;56038;46.080;11.116;2023-08-07T04:56:49;98926.47;;;17.28;54.59
68988;BME280;56038;46.080;11.116;2023-08-07T05:01:51;98923.19;;;17.83;54.71
68988;BME280;56038;46.080;11.116;2023-08-07T05:06:52;98926.78;;;18.49;52.92
68988;BME280;56038;46.080;11.116;2023-08-07T05:11:56;98929.66;;;18.69;51.36
68988;BME280;56038;46.080;11.116;2023-08-07T05:16:57;98931.25;;;19.03;50.68
68988;BME280;56038;46.080;11.116;2023-08-07T05:21:59;98939.22;;;18.92;50.36
68988;BME280;56038;46.080;11.116;2023-08-07T05:27:03;98941.75;;;18.94;49.93
68988;BME280;56038;46.080;11.116;2023-08-07T05:32:06;98947.31;;;18.57;50.01
68988;BME280;56038;46.080;11.116;2023-08-07T05:37:08;98952.38;;;18.38;49.76
68988;BME280;56038;46.080;11.116;2023-08-07T05:42:11;98963.06;;;18.03;49.69
68988;BME280;56038;46.080;11.116;2023-08-07T05:47:13;98959.72;;;18.45;49.68
68988;BME280;56038;46.080;11.116;2023-08-07T05:52:15;98978.50;;;19.19;48.46
68988;BME280;56038;46.080;11.116;2023-08-07T05:57:19;98974.63;;;19.55;47.69
68988;BME280;56038;46.080;11.116;2023-08-07T06:02:20;98978.78;;;19.69;47.38
68988;BME280;56038;46.080;11.116;2023-08-07T06:07:22;98977.50;;;19.52;47.34
68988;BME280;56038;46.080;11.116;2023-08-07T06:12:25;98972.03;;;19.44;47.20
68988;BME280;56038;46.080;11.116;2023-08-07T06:17:27;98969.69;;;19.30;47.20
68988;BME280;56038;46.080;11.116;2023-08-07T06:22:29;98975.09;;;18.85;47.27
68988;BME280;56038;46.080;11.116;2023-08-07T06:27:35;98976.19;;;18.49;45.49
68988;BME280;56038;46.080;11.116;2023-08-07T06:32:37;98969.81;;;18.51;47.49
68988;BME280;56038;46.080;11.116;2023-08-07T06:37:57;98963.81;;;18.49;45.67
68988;BME280;56038;46.080;11.116;2023-08-07T06:43:01;98957.53;;;18.62;46.78
68988;BME280;56038;46.080;11.116;2023-08-07T06:48:02;98956.47;;;18.75;46.71
68988;BME280;56038;46.080;11.116;2023-08-07T06:53:07;98956.78;;;18.93;46.50
68988;BME280;56038;46.080;11.116;2023-08-07T06:58:10;98959.16;;;19.07;46.25
68988;BME280;56038;46.080;11.116;2023-08-07T07:03:12;98956.28;;;19.10;45.91
68988;BME280;56038;46.080;11.116;2023-08-07T07:08:14;98958.59;;;19.25;46.21
68988;BME280;56038;46.080;11.116;2023-08-07T07:13:17;98957.59;;;19.37;45.39
68988;BME280;56038;46.080;11.116;2023-08-07T07:18:18;98959.28;;;19.38;45.37
68988;BME280;56038;46.080;11.116;2023-08-07T07:23:20;98960.06;;;19.61;45.37
68988;BME280;56038;46.080;11.116;2023-08-07T07:28:23;98963.66;;;19.81;43.86
68988;BME280;56038;46.080;11.116;2023-08-07T07:33:25;98973.19;;;20.04;43.95
68988;BME280;56038;46.080;11.116;2023-08-07T07:38:27;98971.31;;;20.25;43.83
68988;BME280;56038;46.080;11.116;2023-08-07T07:43:30;98965.56;;;20.51;43.43
68988;BME280;56038;46.080;11.116;2023-08-07T07:48:32;98958.34;;;20.62;43.10
68988;BME280;56038;46.080;11.116;2023-08-07T07:53:34;98968.19;;;20.81;42.40
68988;BME280;56038;46.080;11.116;2023-08-07T07:58:37;98971.47;;;21.04;41.99
68988;BME280;56038;46.080;11.116;2023-08-07T08:03:39;98964.31;;;20.95;40.67
68988;BME280;56038;46.080;11.116;2023-08-07T08:08:41;98960.75;;;21.25;40.63
68988;BME280;56038;46.080;11.116;2023-08-07T08:13:44;98965.06;;;21.16;39.52
68988;BME280;56038;46.080;11.116;2023-08-07T08:18:46;98960.75;;;21.25;39.49
68988;BME280;56038;46.080;11.116;2023-08-07T08:23:48;98966.47;;;21.40;39.01
68988;BME280;56038;46.080;11.116;2023-08-07T08:28:51;98968.44;;;21.47;38.84
68988;BME280;56038;46.080;11.116;2023-08-07T08:33:52;98970.41;;;21.55;38.19
68988;BME280;56038;46.080;11.116;2023-08-07T08:38:54;98960.59;;;21.65;36.73
68988;BME280;56038;46.080;11.116;2023-08-07T08:43:57;98970.06;;;21.87;37.69
68988;BME280;56038;46.080;11.116;2023-08-07T08:49:01;98963.59;;;22.19;37.26
68988;BME280;56038;46.080;11.116;2023-08-07T08:54:05;98958.19;;;22.38;35.59
68988;BME280;56038;46.080;11.116;2023-08-07T08:59:10;98961.03;;;22.64;35.16
68988;BME280;56038;46.080;11.116;2023-08-07T09:04:12;98948.94;;;22.97;34.51
68988;BME280;56038;46.080;11.116;2023-08-07T09:09:14;98954.38;;;23.23;33.86
68988;BME280;56038;46.080;11.116;2023-08-07T09:14:22;98951.75;;;23.49;33.24
68988;BME280;56038;46.080;11.116;2023-08-07T09:19:24;98939.66;;;23.72;34.27
68988;BME280;56038;46.080;11.116;2023-08-07T09:24:26;98942.69;;;24.03;33.79
68988;BME280;56038;46.080;11.116;2023-08-07T09:29:29;98937.50;;;24.28;32.57
68988;BME280;56038;46.080;11.116;2023-08-07T09:34:31;98948.16;;;24.54;32.62
68988;BME280;56038;46.080;11.116;2023-08-07T09:39:32;98940.88;;;24.64;31.91
68988;BME280;56038;46.080;11.116;2023-08-07T09:44:37;98941.63;;;24.98;31.10
68988;BME280;56038;46.080;11.116;2023-08-07T09:49:39;98930.34;;;25.13;29.51
68988;BME280;56038;46.080;11.116;2023-08-07T09:54:41;98929.34;;;25.54;28.92
68988;BME280;56038;46.080;11.116;2023-08-07T09:59:49;98925.03;;;25.78;26.99
68988;BME280;56038;46.080;11.116;2023-08-07T10:04:51;98928.81;;;26.00;28.02
68988;BME280;56038;46.080;11.116;2023-08-07T10:09:54;98926.31;;;26.06;27.43
68988;BME280;56038;46.080;11.116;2023-08-07T10:14:58;98918.84;;;26.33;27.03
68988;BME280;56038;46.080;11.116;2023-08-07T10:20:01;98929.16;;;26.60;27.10
68988;BME280;56038;46.080;11.116;2023-08-07T10:25:08;98920.75;;;26.63;26.22
68988;BME280;56038;46.080;11.116;2023-08-07T10:30:14;98913.72;;;26.70;25.53
68988;BME280;56038;46.080;11.116;2023-08-07T10:35:25;98916.41;;;26.93;26.54
68988;BME280;56038;46.080;11.116;2023-08-07T10:40:28;98912.41;;;27.20;27.09
68988;BME280;56038;46.080;11.116;2023-08-07T10:45:34;98915.03;;;27.51;25.25
68988;BME280;56038;46.080;11.116;2023-08-07T10:50:49;98910.38;;;27.68;25.10
68988;BME280;56038;46.080;11.116;2023-08-07T10:55:51;98903.81;;;27.70;26.54
68988;BME280;56038;46.080;11.116;2023-08-07T11:01:27;98914.97;;;28.12;24.14
68988;BME280;56038;46.080;11.116;2023-08-07T11:06:30;98906.44;;;28.23;24.56
68988;BME280;56038;46.080;11.116;2023-08-07T11:11:36;98916.47;;;28.44;24.27
68988;BME280;56038;46.080;11.116;2023-08-07T11:16:42;98904.44;;;28.90;23.39
68988;BME280;56038;46.080;11.116;2023-08-07T11:21:44;98899.34;;;29.38;24.71
68988;BME280;56038;46.080;11.116;2023-08-07T11:26:46;98896.66;;;29.88;23.96
68988;BME280;56038;46.080;11.116;2023-08-07T11:31:49;98887.56;;;30.23;23.85
68988;BME280;56038;46.080;11.116;2023-08-07T11:36:51;98886.47;;;30.59;23.95
68988;BME280;56038;46.080;11.116;2023-08-07T11:41:55;98892.91;;;29.89;24.34
68988;BME280;56038;46.080;11.116;2023-08-07T11:46:59;98891.41;;;29.79;23.54
68988;BME280;56038;46.080;11.116;2023-08-07T11:52:01;98876.34;;;30.20;23.06
68988;BME280;56038;46.080;11.116;2023-08-07T11:57:03;98874.03;;;30.58;23.66
68988;BME280;56038;46.080;11.116;2023-08-07T12:02:22;98872.47;;;30.83;22.31
68988;BME280;56038;46.080;11.116;2023-08-07T12:07:24;98870.03;;;30.95;22.89
68988;BME280;56038;46.080;11.116;2023-08-07T12:12:27;98868.81;;;31.24;20.19
68988;BME280;56038;46.080;11.116;2023-08-07T12:17:31;98872.94;;;30.93;21.64
68988;BME280;56038;46.080;11.116;2023-08-07T12:22:35;98865.09;;;31.51;22.09
68988;BME280;56038;46.080;11.116;2023-08-07T12:27:37;98863.44;;;31.50;21.47
68988;BME280;56038;46.080;11.116;2023-08-07T12:32:40;98867.41;;;31.41;21.95
68988;BME280;56038;46.080;11.116;2023-08-07T12:37:42;98855.94;;;31.92;21.94
68988;BME280;56038;46.080;11.116;2023-08-07T12:42:44;98855.72;;;32.00;21.10
68988;BME280;56038;46.080;11.116;2023-08-07T12:47:47;98848.81;;;32.11;19.76
68988;BME280;56038;46.080;11.116;2023-08-07T12:52:49;98854.50;;;32.54;20.58
68988;BME280;56038;46.080;11.116;2023-08-07T12:57:52;98858.22;;;32.60;20.58
68988;BME280;56038;46.080;11.116;2023-08-07T13:02:55;98858.59;;;32.70;19.56
68988;BME280;56038;46.080;11.116;2023-08-07T13:07:57;98864.47;;;32.60;19.93
68988;BME280;56038;46.080;11.116;2023-08-07T13:12:59;98860.19;;;32.39;20.29
68988;BME280;56038;46.080;11.116;2023-08-07T13:18:03;98866.25;;;32.28;20.32
68988;BME280;56038;46.080;11.116;2023-08-07T13:23:05;98865.91;;;32.05;20.17
68988;BME280;56038;46.080;11.116;2023-08-07T13:28:07;98869.53;;;32.88;20.36
68988;BME280;56038;46.080;11.116;2023-08-07T13:33:10;98877.88;;;33.18;19.64
68988;BME280;56038;46.080;11.116;2023-08-07T13:38:12;98873.03;;;32.95;19.17
68988;BME280;56038;46.080;11.116;2023-08-07T13:43:15;98877.16;;;32.98;17.38
68988;BME280;56038;46.080;11.116;2023-08-07T13:48:18;98890.41;;;33.69;18.94
68988;BME280;56038;46.080;11.116;2023-08-07T13:53:20;98882.13;;;33.39;16.59
68988;BME280;56038;46.080;11.116;2023-08-07T13:58:24;98873.56;;;33.42;18.43
68988;BME280;56038;46.080;11.116;2023-08-07T14:03:27;98865.03;;;33.07;17.79
68988;BME280;56038;46.080;11.116;2023-08-07T14:08:29;98871.53;;;32.61;19.31
68988;BME280;56038;46.080;11.116;2023-08-07T14:13:33;98876.59;;;32.51;19.70
68988;BME280;56038;46.080;11.116;2023-08-07T14:18:36;98871.59;;;32.48;19.12
68988;BME280;56038;46.080;11.116;2023-08-07T14:23:38;98885.00;;;32.74;19.51
68988;BME280;56038;46.080;11.116;2023-08-07T14:28:40;98879.06;;;32.53;19.66
68988;BME280;56038;46.080;11.116;2023-08-07T14:33:43;98886.75;;;32.49;19.50
68988;BME280;56038;46.080;11.116;2023-08-07T14:38:45;98887.19;;;32.53;19.74
68988;BME280;56038;46.080;11.116;2023-08-07T14:43:46;98892.44;;;32.41;19.08
68988;BME280;56038;46.080;11.116;2023-08-07T14:48:49;98897.44;;;32.17;19.93
68988;BME280;56038;46.080;11.116;2023-08-07T14:53:51;98908.63;;;30.95;20.76
68988;BME280;56038;46.080;11.116;2023-08-07T14:58:54;98898.38;;;30.30;21.34
68988;BME280;56038;46.080;11.116;2023-08-07T15:03:57;98910.84;;;30.03;21.20
68988;BME280;56038;46.080;11.116;2023-08-07T15:08:59;98903.25;;;30.48;21.13
68988;BME280;56038;46.080;11.116;2023-08-07T15:14:00;98906.03;;;30.67;20.98
68988;BME280;56038;46.080;11.116;2023-08-07T15:19:06;98917.63;;;30.27;20.85
68988;BME280;56038;46.080;11.116;2023-08-07T15:24:11;98914.38;;;29.33;21.40
68988;BME280;56038;46.080;11.116;2023-08-07T15:29:13;98910.44;;;28.56;21.94
68988;BME280;56038;46.080;11.116;2023-08-07T15:34:16;98909.53;;;28.71;21.68
68988;BME280;56038;46.080;11.116;2023-08-07T15:39:18;98908.81;;;28.77;21.08
68988;BME280;56038;46.080;11.116;2023-08-07T15:44:20;98911.94;;;28.95;21.18
68988;BME280;56038;46.080;11.116;2023-08-07T15:49:23;98909.13;;;28.52;20.94
68988;BME280;56038;46.080;11.116;2023-08-07T15:54:25;98918.53;;;27.89;20.57
68988;BME280;56038;46.080;11.116;2023-08-07T15:59:27;98927.19;;;27.39;21.08
68988;BME280;56038;46.080;11.116;2023-08-07T16:04:30;98932.78;;;27.06;20.21
68988;BME280;56038;46.080;11.116;2023-08-07T16:09:31;98933.59;;;27.15;20.14
68988;BME280;56038;46.080;11.116;2023-08-07T16:14:33;98934.16;;;27.25;20.52
68988;BME280;56038;46.080;11.116;2023-08-07T16:19:36;98935.44;;;26.75;21.19
68988;BME280;56038;46.080;11.116;2023-08-07T16:24:38;98946.31;;;26.43;21.42
68988;BME280;56038;46.080;11.116;2023-08-07T16:29:39;98958.88;;;26.18;21.38
68988;BME280;56038;46.080;11.116;2023-08-07T16:34:43;98964.44;;;26.08;21.04
68988;BME280;56038;46.080;11.116;2023-08-07T16:39:44;98968.31;;;25.97;21.53
68988;BME280;56038;46.080;11.116;2023-08-07T16:44:46;98978.84;;;25.99;21.26
68988;BME280;56038;46.080;11.116;2023-08-07T16:49:49;98973.50;;;25.91;21.40
68988;BME280;56038;46.080;11.116;2023-08-07T16:54:51;98983.88;;;25.78;21.68
68988;BME280;56038;46.080;11.116;2023-08-07T16:59:54;98995.91;;;25.82;21.68
68988;BME280;56038;46.080;11.116;2023-08-07T17:04:57;99004.13;;;25.88;21.90
68988;BME280;56038;46.080;11.116;2023-08-07T17:09:59;99025.69;;;25.87;22.11
68988;BME280;56038;46.080;11.116;2023-08-07T17:15:01;99026.31;;;25.64;21.63
68988;BME280;56038;46.080;11.116;2023-08-07T17:20:05;99031.94;;;25.37;21.77
68988;BME280;56038;46.080;11.116;2023-08-07T17:25:08;99026.09;;;25.25;22.64
68988;BME280;56038;46.080;11.116;2023-08-07T17:30:10;99034.88;;;25.01;23.63
68988;BME280;56038;46.080;11.116;2023-08-07T17:35:13;99044.28;;;24.54;24.30
68988;BME280;56038;46.080;11.116;2023-08-07T17:40:15;99051.41;;;24.45;24.74
68988;BME280;56038;46.080;11.116;2023-08-07T17:45:17;99062.72;;;24.39;24.64
68988;BME280;56038;46.080;11.116;2023-08-07T17:50:20;99073.88;;;24.34;24.58
68988;BME280;56038;46.080;11.116;2023-08-07T17:55:22;99074.47;;;24.28;23.51
68988;BME280;56038;46.080;11.116;2023-08-07T18:00:24;99074.47;;;24.28;23.03
68988;BME280;56038;46.080;11.116;2023-08-07T18:05:27;99083.78;;;24.24;22.16
68988;BME280;56038;46.080;11.116;2023-08-07T18:10:29;99091.44;;;24.19;22.34
68988;BME280;56038;46.080;11.116;2023-08-07T18:15:31;99102.69;;;24.13;22.72
68988;BME280;56038;46.080;11.116;2023-08-07T18:20:34;99104.47;;;24.04;23.08
68988;BME280;56038;46.080;11.116;2023-08-07T18:25:36;99103.41;;;23.97;23.24
68988;BME280;56038;46.080;11.116;2023-08-07T18:30:38;99123.16;;;23.86;23.31
68988;BME280;56038;46.080;11.116;2023-08-07T18:35:41;99129.25;;;23.79;23.56
68988;BME280;56038;46.080;11.116;2023-08-07T18:40:43;99143.50;;;23.70;24.34
68988;BME280;56038;46.080;11.116;2023-08-07T18:45:44;99151.03;;;23.47;24.81
68988;BME280;56038;46.080;11.116;2023-08-07T18:50:47;99172.16;;;23.30;25.47
68988;BME280;56038;46.080;11.116;2023-08-07T18:55:49;99183.19;;;23.08;25.82
68988;BME280;56038;46.080;11.116;2023-08-07T19:00:51;99195.56;;;22.99;26.97
68988;BME280;56038;46.080;11.116;2023-08-07T19:05:54;99203.41;;;22.82;26.95
68988;BME280;56038;46.080;11.116;2023-08-07T19:10:56;99210.84;;;22.68;27.29
68988;BME280;56038;46.080;11.116;2023-08-07T19:15:57;99223.78;;;22.63;28.47
68988;BME280;56038;46.080;11.116;2023-08-07T19:21:00;99234.41;;;22.54;28.36
68988;BME280;56038;46.080;11.116;2023-08-07T19:26:02;99245.22;;;22.42;28.34
68988;BME280;56038;46.080;11.116;2023-08-07T19:31:04;99257.50;;;22.24;28.34
68988;BME280;56038;46.080;11.116;2023-08-07T19:36:07;99266.34;;;22.15;29.15
68988;BME280;56038;46.080;11.116;2023-08-07T19:41:09;99277.19;;;22.02;28.45
68988;BME280;56038;46.080;11.116;2023-08-07T19:46:11;99280.31;;;22.07;28.93
68988;BME280;56038;46.080;11.116;2023-08-07T19:51:14;99287.91;;;22.12;29.47
68988;BME280;56038;46.080;11.116;2023-08-07T19:56:17;99301.00;;;21.94;29.19
68988;BME280;56038;46.080;11.116;2023-08-07T20:01:19;99320.25;;;21.87;29.36
68988;BME280;56038;46.080;11.116;2023-08-07T20:06:22;99319.78;;;21.72;29.65
68988;BME280;56038;46.080;11.116;2023-08-07T20:11:25;99331.81;;;21.76;30.04
68988;BME280;56038;46.080;11.116;2023-08-07T20:16:27;99337.28;;;21.74;30.41
68988;BME280;56038;46.080;11.116;2023-08-07T20:21:33;99341.38;;;21.78;31.01
68988;BME280;56038;46.080;11.116;2023-08-07T20:26:35;99350.84;;;21.71;30.97
68988;BME280;56038;46.080;11.116;2023-08-07T20:31:37;99359.03;;;21.59;30.96
68988;BME280;56038;46.080;11.116;2023-08-07T20:36:40;99367.19;;;21.46;31.28
68988;BME280;56038;46.080;11.116;2023-08-07T20:41:43;99379.91;;;21.42;31.26
68988;BME280;56038;46.080;11.116;2023-08-07T20:46:45;99379.53;;;21.26;31.34
68988;BME280;56038;46.080;11.116;2023-08-07T20:51:48;99391.00;;;20.94;31.81
68988;BME280;56038;46.080;11.116;2023-08-07T20:56:50;99398.47;;;21.01;31.61
68988;BME280;56038;46.080;11.116;2023-08-07T21:01:51;99414.28;;;21.02;31.94
68988;BME280;56038;46.080;11.116;2023-08-07T21:06:54;99410.34;;;21.17;32.16
68988;BME280;56038;46.080;11.116;2023-08-07T21:11:56;99409.97;;;20.90;31.96
68988;BME280;56038;46.080;11.116;2023-08-07T21:17:00;99406.50;;;20.78;32.30
68988;BME280;56038;46.080;11.116;2023-08-07T21:22:04;99421.66;;;20.55;32.54
68988;BME280;56038;46.080;11.116;2023-08-07T21:27:07;99429.53;;;20.89;33.11
68988;BME280;56038;46.080;11.116;2023-08-07T21:32:08;99426.94;;;20.99;32.90
68988;BME280;56038;46.080;11.116;2023-08-07T21:37:11;99440.22;;;20.99;33.12
68988;BME280;56038;46.080;11.116;2023-08-07T21:42:13;99434.00;;;20.88;33.36
68988;BME280;56038;46.080;11.116;2023-08-07T21:47:14;99441.94;;;20.88;33.22
68988;BME280;56038;46.080;11.116;2023-08-07T21:52:18;99447.75;;;20.82;33.22
68988;BME280;56038;46.080;11.116;2023-08-07T21:57:20;99455.84;;;20.81;33.21
68988;BME280;56038;46.080;11.116;2023-08-07T22:02:22;99453.13;;;20.60;33.04
68988;BME280;56038;46.080;11.116;2023-08-07T22:07:25;99457.25;;;20.42;33.17
68988;BME280;56038;46.080;11.116;2023-08-07T22:12:27;99462.50;;;20.30;33.27
68988;BME280;56038;46.080;11.116;2023-08-07T22:17:29;99464.69;;;20.25;33.32
68988;BME280;56038;46.080;11.116;2023-08-07T22:22:31;99470.22;;;20.33;34.67
68988;BME280;56038;46.080;11.116;2023-08-07T22:27:33;99482.44;;;20.36;34.25
68988;BME280;56038;46.080;11.116;2023-08-07T22:32:35;99478.94;;;20.36;34.38
68988;BME280;56038;46.080;11.116;2023-08-07T22:37:38;99485.91;;;20.37;34.46
68988;BME280;56038;46.080;11.116;2023-08-07T22:42:40;99488.59;;;20.48;34.88
68988;BME280;56038;46.080;11.116;2023-08-07T22:47:41;99486.91;;;20.58;34.89
68988;BME280;56038;46.080;11.116;2023-08-07T22:52:45;99483.53;;;20.45;35.28
68988;BME280;56038;46.080;11.116;2023-08-07T22:57:46;99481.31;;;20.27;35.47
68988;BME280;56038;46.080;11.116;2023-08-07T23:02:48;99483.25;;;20.25;35.78
68988;BME280;56038;46.080;11.116;2023-08-07T23:07:51;99496.91;;;20.54;35.51
68988;BME280;56038;46.080;11.116;2023-08-07T23:12:53;99496.03;;;20.65;35.43
68988;BME280;56038;46.080;11.116;2023-08-07T23:17:54;99505.34;;;20.71;35.28
68988;BME280;56038;46.080;11.116;2023-08-07T23:22:57;99504.97;;;20.64;35.31
68988;BME280;56038;46.080;11.116;2023-08-07T23:27:59;99505.69;;;20.66;35.34
68988;BME280;56038;46.080;11.116;2023-08-07T23:33:01;99512.84;;;20.43;35.31
68988;BME280;56038;46.080;11.116;2023-08-07T23:38:04;99505.69;;;20.21;35.72
68988;BME280;56038;46.080;11.116;2023-08-07T23:43:06;99508.28;;;19.99;35.78
68988;BME280;56038;46.080;11.116;2023-08-07T23:48:07;99505.28;;;19.92;35.97
68988;BME280;56038;46.080;11.116;2023-08-07T23:53:10;99511.16;;;19.85;35.99
68988;BME280;56038;46.080;11.116;2023-08-07T23:58:18;99510.06;;;19.76;36.26
